Time;durP1;ratioP1;P1;durP2;ratioP2;P2;SDS_P1;SDS_P2;PMS_P1;PMS_P2;Temp;Humidity;BMP_temperature;BMP_pressure;BME280_temperature;BME280_humidity;BME280_pressure;Samples;Min_cycle;Max_cycle;Signal;HPM_P1;HPM_P2
2023/11/20 00:00:26;;;;;;;0.82;0.57;;;;;;;6.63;59.54;99457.09;4458554;32;20123;-94
2023/11/20 00:02:51;;;;;;;0.75;0.75;;;;;;;6.63;59.54;99458.81;4458869;32;20149;-93
2023/11/20 00:05:19;;;;;;;0.85;0.85;;;;;;;6.64;59.54;99479.47;4458188;32;20152;-94
2023/11/20 00:07:46;;;;;;;0.73;0.70;;;;;;;6.44;59.53;99474.69;4446422;32;20109;-94
2023/11/20 00:10:11;;;;;;;0.68;0.37;;;;;;;6.49;59.53;99466.84;4454334;32;20185;-94
2023/11/20 00:12:36;;;;;;;0.32;0.32;;;;;;;6.57;59.53;99479.59;4465594;32;20143;-94
2023/11/20 00:15:02;;;;;;;0.37;0.37;;;;;;;6.66;59.55;99487.19;4460053;32;20128;-93
2023/11/20 00:17:27;;;;;;;0.32;0.32;;;;;;;6.61;59.55;99492.44;4458243;32;20097;-93
2023/11/20 00:19:53;;;;;;;0.45;0.45;;;;;;;6.66;59.55;99500.13;4471375;32;20104;-92
2023/11/20 00:22:19;;;;;;;1.27;1.17;;;;;;;6.72;59.55;99494.81;4452595;32;20175;-94
2023/11/20 00:24:44;;;;;;;0.28;0.28;;;;;;;6.52;59.54;99490.03;4459598;32;20510;-93
2023/11/20 00:27:10;;;;;;;1.85;1.48;;;;;;;6.66;59.55;99494.97;4471488;32;20126;-94
2023/11/20 00:29:37;;;;;;;0.45;0.45;;;;;;;6.70;59.55;99492.28;4486557;32;20118;-94
2023/11/20 00:32:02;;;;;;;0.00;0.00;;;;;;;6.68;59.55;99488.00;4451019;32;20119;-93
2023/11/20 00:34:28;;;;;;;0.20;0.20;;;;;;;6.63;59.54;99484.69;4460334;32;20143;-94
2023/11/20 00:36:56;;;;;;;0.73;0.73;;;;;;;6.58;59.55;99478.72;4460576;32;20144;-94
2023/11/20 00:39:22;;;;;;;0.15;0.15;;;;;;;6.76;59.55;99478.34;4460765;32;20118;-93
2023/11/20 00:41:48;;;;;;;0.75;0.75;;;;;;;6.86;59.56;99485.06;4454654;32;20145;-93
2023/11/20 00:44:16;;;;;;;0.37;0.37;;;;;;;6.80;59.56;99495.50;4456043;32;20148;-93
2023/11/20 00:46:41;;;;;;;0.80;0.73;;;;;;;6.80;59.55;99515.34;4460963;32;20104;-94
2023/11/20 00:49:07;;;;;;;0.03;0.03;;;;;;;6.67;59.55;99532.88;4460548;32;20119;-94
2023/11/20 00:51:32;;;;;;;4.22;2.45;;;;;;;6.83;59.55;99549.78;4460456;32;20123;-95
2023/11/20 00:53:58;;;;;;;0.88;0.77;;;;;;;6.77;59.55;99578.34;4460192;32;20547;-93
2023/11/20 00:56:23;;;;;;;0.45;0.45;;;;;;;6.65;59.54;99570.84;4460359;32;20161;-93
2023/11/20 00:58:49;;;;;;;0.77;0.77;;;;;;;6.67;59.55;99538.03;4458353;32;20089;-93
2023/11/20 01:01:15;;;;;;;8.68;2.28;;;;;;;6.37;59.53;99506.69;4460635;32;20146;-94
2023/11/20 01:03:40;;;;;;;0.32;0.20;;;;;;;6.41;59.53;99492.84;4460138;32;20100;-93
2023/11/20 01:06:08;;;;;;;1.08;0.95;;;;;;;6.56;59.54;99485.66;4451293;32;20152;-93
2023/11/20 01:08:34;;;;;;;0.70;0.70;;;;;;;6.46;59.54;99470.34;4460192;32;20097;-93
2023/11/20 01:10:59;;;;;;;0.00;0.00;;;;;;;6.40;59.53;99467.03;4447854;32;20154;-93
2023/11/20 01:13:25;;;;;;;6.07;1.50;;;;;;;6.57;59.54;99458.91;4468472;32;22939;-95
2023/11/20 01:15:51;;;;;;;2.20;1.35;;;;;;;6.52;59.54;99476.25;4461070;32;20719;-94
2023/11/20 01:18:16;;;;;;;0.40;0.28;;;;;;;6.22;59.53;99469.97;4460487;32;20119;-95
2023/11/20 01:20:43;;;;;;;0.50;0.50;;;;;;;6.18;59.52;99479.50;4455227;32;20403;-94
2023/11/20 01:23:09;;;;;;;0.52;0.13;;;;;;;6.20;59.52;99502.75;4445783;32;20104;-94
2023/11/20 01:25:35;;;;;;;1.80;1.02;;;;;;;6.26;59.52;99500.88;4460665;32;20238;-94
2023/11/20 01:28:00;;;;;;;0.00;0.00;;;;;;;6.25;59.52;99494.03;4460825;32;20112;-94
2023/11/20 01:30:26;;;;;;;1.75;0.62;;;;;;;5.97;59.51;99496.25;4454697;32;20096;-94
2023/11/20 01:32:51;;;;;;;0.00;0.00;;;;;;;6.10;59.52;99502.88;4455904;32;20134;-94
2023/11/20 01:35:17;;;;;;;5.10;0.70;;;;;;;6.32;59.52;99495.59;4460727;32;20377;-94
2023/11/20 01:37:43;;;;;;;0.98;0.45;;;;;;;6.02;59.51;99478.06;4460601;32;20089;-95
2023/11/20 01:40:10;;;;;;;0.13;0.13;;;;;;;5.78;59.50;99472.44;4461020;32;20111;-94
2023/11/20 01:42:36;;;;;;;0.62;0.62;;;;;;;5.93;59.51;99462.75;4460870;32;20128;-94
2023/11/20 01:45:09;;;;;;;0.25;0.20;;;;;;;6.29;59.53;99461.22;4460241;32;20112;-94
2023/11/20 01:47:38;;;;;;;0.65;0.65;;;;;;;5.95;59.51;99467.00;4460732;32;20093;-94
2023/11/20 01:50:05;;;;;;;0.20;0.20;;;;;;;5.76;59.50;99466.44;4459942;32;20089;-95
2023/11/20 01:52:32;;;;;;;0.40;0.40;;;;;;;5.76;59.50;99463.84;4459856;32;20139;-93
2023/11/20 01:54:57;;;;;;;1.40;1.30;;;;;;;5.80;59.50;99462.91;4470401;32;20155;-92
2023/11/20 01:57:23;;;;;;;0.60;0.60;;;;;;;5.84;59.51;99454.22;4455961;32;20123;-93
2023/11/20 01:59:49;;;;;;;1.77;0.37;;;;;;;5.77;59.50;99454.38;4459806;32;20115;-94
2023/11/20 02:02:14;;;;;;;0.95;0.95;;;;;;;5.90;59.51;99458.47;4459883;32;20215;-93
2023/11/20 02:04:40;;;;;;;0.88;0.88;;;;;;;5.94;59.51;99467.03;4459707;32;20168;-94
2023/11/20 02:07:08;;;;;;;0.37;0.37;;;;;;;5.77;59.50;99464.72;4449550;32;20426;-93
2023/11/20 02:09:34;;;;;;;2.15;1.70;;;;;;;5.64;59.49;99469.22;4460099;32;20104;-93
2023/11/20 02:12:00;;;;;;;0.10;0.10;;;;;;;5.65;59.49;99476.06;4459835;32;20109;-93
2023/11/20 02:14:25;;;;;;;0.80;0.80;;;;;;;5.68;59.50;99470.91;4459863;32;20119;-93
2023/11/20 02:16:52;;;;;;;1.00;0.82;;;;;;;5.70;59.50;99470.88;4459809;32;20113;-94
2023/11/20 02:19:17;;;;;;;0.30;0.30;;;;;;;6.02;59.51;99465.16;4460334;32;20100;-94
2023/11/20 02:21:44;;;;;;;0.32;0.25;;;;;;;5.93;59.51;99468.78;4447710;32;20152;-93
2023/11/20 02:24:10;;;;;;;1.37;1.27;;;;;;;5.96;59.51;99473.03;4448990;32;20537;-93
2023/11/20 02:26:56;;;;;;;0.57;0.57;;;;;;;5.87;59.50;99479.16;4469993;32;20213;-93
2023/11/20 02:29:25;;;;;;;0.08;0.08;;;;;;;5.72;59.49;99475.13;4479320;32;20619;-93
2023/11/20 02:31:50;;;;;;;0.43;0.27;;;;;;;5.82;59.50;99475.81;4457025;32;20105;-93
2023/11/20 02:34:18;;;;;;;1.05;0.95;;;;;;;5.84;59.51;99474.91;4453693;32;20126;-93
2023/11/20 02:36:44;;;;;;;0.55;0.47;;;;;;;5.69;59.49;99476.91;4472827;32;20112;-94
2023/11/20 02:39:09;;;;;;;0.88;0.88;;;;;;;5.76;59.50;99474.19;4459832;32;20112;-94
2023/11/20 02:41:36;;;;;;;0.30;0.30;;;;;;;5.84;59.51;99477.47;4459410;32;20143;-93
2023/11/20 02:44:03;;;;;;;1.35;0.85;;;;;;;5.69;59.50;99480.34;4460252;32;20421;-94
2023/11/20 02:46:28;;;;;;;0.50;0.50;;;;;;;5.66;59.49;99469.19;4459879;32;20080;-95
2023/11/20 02:48:53;;;;;;;0.45;0.45;;;;;;;5.23;59.46;99483.63;4459910;32;20116;-93
2023/11/20 02:51:19;;;;;;;0.20;0.20;;;;;;;5.51;59.48;99472.88;4458622;32;20127;-94
2023/11/20 02:53:44;;;;;;;1.42;1.08;;;;;;;5.35;59.47;99471.41;4459510;32;20528;-92
2023/11/20 02:56:10;;;;;;;0.45;0.45;;;;;;;5.43;59.48;99474.72;4459452;32;20406;-94
2023/11/20 02:58:35;;;;;;;0.00;0.00;;;;;;;5.52;59.48;99477.19;4457031;32;20151;-94
2023/11/20 03:01:00;;;;;;;1.45;0.85;;;;;;;5.50;59.48;99474.63;4458919;32;20148;-93
2023/11/20 03:03:26;;;;;;;5.00;1.95;;;;;;;5.48;59.48;99480.69;4459604;32;20120;-94
2023/11/20 03:05:51;;;;;;;3.58;1.65;;;;;;;5.36;59.47;99468.81;4449450;32;20104;-93
2023/11/20 03:08:17;;;;;;;0.43;0.43;;;;;;;5.23;59.46;99463.00;4459720;32;20405;-92
2023/11/20 03:10:42;;;;;;;0.37;0.37;;;;;;;5.36;59.47;99475.69;4472830;32;20150;-92
2023/11/20 03:13:07;;;;;;;0.32;0.32;;;;;;;5.50;59.48;99471.19;4459614;32;20774;-92
2023/11/20 03:15:33;;;;;;;0.22;0.22;;;;;;;5.62;59.49;99462.38;4459741;32;20112;-91
2023/11/20 03:17:58;;;;;;;0.95;0.95;;;;;;;5.41;59.48;99461.84;4459946;32;20429;-93
2023/11/20 03:20:24;;;;;;;0.20;0.20;;;;;;;5.59;59.49;99470.16;4449442;32;20136;-93
2023/11/20 03:22:50;;;;;;;0.22;0.22;;;;;;;5.42;59.47;99476.44;4459995;32;20151;-94
2023/11/20 03:25:15;;;;;;;1.75;1.65;;;;;;;5.40;59.48;99477.34;4459992;32;20155;-94
2023/11/20 03:27:41;;;;;;;0.62;0.62;;;;;;;5.67;59.49;99468.31;4459787;32;20097;-93
2023/11/20 03:30:08;;;;;;;1.55;1.05;;;;;;;5.42;59.48;99465.28;4459622;32;20128;-92
2023/11/20 03:32:34;;;;;;;0.60;0.60;;;;;;;5.44;59.48;99456.66;4460512;32;20175;-92
2023/11/20 03:34:59;;;;;;;1.42;1.35;;;;;;;5.41;59.48;99448.94;4449596;32;20096;-92
2023/11/20 03:37:24;;;;;;;1.30;1.20;;;;;;;5.47;59.48;99445.41;4459368;32;20203;-92
2023/11/20 03:39:50;;;;;;;0.47;0.47;;;;;;;5.46;59.48;99438.56;4448950;32;20164;-92
2023/11/20 03:42:15;;;;;;;0.52;0.28;;;;;;;5.51;59.48;99424.69;4459224;32;20108;-92
2023/11/20 03:44:40;;;;;;;0.85;0.85;;;;;;;5.54;59.49;99421.19;4449019;32;20114;-92
2023/11/20 03:47:06;;;;;;;0.00;0.00;;;;;;;5.51;59.48;99416.09;4471942;32;27640;-93
2023/11/20 03:49:32;;;;;;;1.10;0.43;;;;;;;5.47;59.48;99409.28;4459386;32;20120;-93
2023/11/20 03:51:57;;;;;;;0.45;0.45;;;;;;;5.45;59.48;99405.87;4459153;32;20144;-92
2023/11/20 03:54:22;;;;;;;0.00;0.00;;;;;;;5.47;59.48;99407.56;4456474;32;20128;-92
2023/11/20 03:56:48;;;;;;;4.95;0.45;;;;;;;5.49;59.48;99397.19;4450659;32;20111;-92
2023/11/20 03:59:15;;;;;;;0.65;0.65;;;;;;;5.55;59.49;99384.19;4457462;32;20156;-93
2023/11/20 04:01:40;;;;;;;0.62;0.35;;;;;;;5.61;59.49;99394.38;4459393;32;20161;-89
2023/11/20 04:04:06;;;;;;;0.65;0.65;;;;;;;5.61;59.48;99385.78;4456463;32;21053;-92
2023/11/20 04:06:31;;;;;;;0.77;0.77;;;;;;;5.57;59.49;99381.56;4457203;32;20136;-92
2023/11/20 04:08:57;;;;;;;0.65;0.65;;;;;;;5.40;59.48;99387.00;4460259;32;20108;-91
2023/11/20 04:11:22;;;;;;;0.22;0.22;;;;;;;5.33;59.48;99393.16;4460497;32;20116;-91
2023/11/20 04:13:48;;;;;;;0.10;0.10;;;;;;;5.40;59.48;99394.75;4460348;32;20164;-91
2023/11/20 04:16:14;;;;;;;0.00;0.00;;;;;;;5.41;59.48;99384.41;4460533;32;20128;-91
2023/11/20 04:18:39;;;;;;;0.47;0.47;;;;;;;5.53;59.49;99386.78;4460414;32;20128;-92
2023/11/20 04:21:05;;;;;;;0.90;0.90;;;;;;;5.21;59.46;99386.50;4460442;32;20654;-90
2023/11/20 04:23:31;;;;;;;0.00;0.00;;;;;;;5.35;59.47;99386.25;4460576;32;20136;-95
2023/11/20 04:25:56;;;;;;;0.08;0.08;;;;;;;5.13;59.46;99396.91;4460800;32;20476;-92
2023/11/20 04:28:22;;;;;;;1.08;0.98;;;;;;;5.23;59.46;99408.81;4450072;32;20117;-92
2023/11/20 04:30:47;;;;;;;0.77;0.77;;;;;;;5.27;59.47;99412.19;4452071;32;20465;-92
2023/11/20 04:33:13;;;;;;;1.08;1.08;;;;;;;5.22;59.46;99424.31;4456041;32;20135;-92
2023/11/20 04:35:38;;;;;;;1.85;1.62;;;;;;;5.27;59.47;99439.72;4480229;32;20157;-93
2023/11/20 04:38:03;;;;;;;0.00;0.00;;;;;;;5.22;59.46;99450.97;4460265;32;20105;-93
2023/11/20 04:40:29;;;;;;;0.05;0.05;;;;;;;5.19;59.47;99444.97;4456753;32;20105;-92
2023/11/20 04:42:54;;;;;;;0.47;0.47;;;;;;;5.11;59.46;99442.53;4460805;32;20464;-93
2023/11/20 04:45:20;;;;;;;0.20;0.20;;;;;;;5.20;59.47;99441.53;4453040;32;20112;-93
2023/11/20 04:47:45;;;;;;;3.83;1.58;;;;;;;5.38;59.47;99437.81;4458106;32;20156;-93
2023/11/20 04:50:11;;;;;;;0.10;0.10;;;;;;;5.41;59.48;99433.44;4460957;32;20131;-91
2023/11/20 04:52:37;;;;;;;0.32;0.32;;;;;;;5.37;59.47;99436.09;4460961;32;20111;-94
2023/11/20 04:55:04;;;;;;;0.45;0.20;;;;;;;5.33;59.47;99424.97;4461362;32;20140;-93
2023/11/20 04:57:29;;;;;;;0.05;0.05;;;;;;;5.26;59.47;99423.38;4473688;32;20096;-91
2023/11/20 04:59:57;;;;;;;0.22;0.22;;;;;;;5.40;59.48;99417.97;4461384;32;20592;-92
2023/11/20 05:02:25;;;;;;;0.95;0.85;;;;;;;5.32;59.48;99427.59;4450790;32;20119;-93
2023/11/20 05:04:50;;;;;;;0.00;0.00;;;;;;;5.22;59.46;99417.44;4458874;32;20682;-93
2023/11/20 05:07:16;;;;;;;0.30;0.30;;;;;;;5.54;59.49;99416.03;4459710;32;20122;-91
2023/11/20 05:09:41;;;;;;;0.05;0.05;;;;;;;5.27;59.47;99416.50;4472825;32;22426;-92
2023/11/20 05:12:07;;;;;;;1.30;1.20;;;;;;;5.23;59.46;99420.84;4460128;32;20096;-93
2023/11/20 05:14:33;;;;;;;1.87;1.20;;;;;;;5.30;59.47;99416.44;4460489;32;20168;-92
2023/11/20 05:16:58;;;;;;;0.52;0.50;;;;;;;5.18;59.47;99420.06;4459940;32;20473;-91
2023/11/20 05:19:24;;;;;;;0.90;0.85;;;;;;;5.23;59.46;99408.81;4459630;32;20763;-91
2023/11/20 05:21:50;;;;;;;0.37;0.37;;;;;;;5.40;59.48;99413.66;4449110;32;20091;-91
2023/11/20 05:24:15;;;;;;;0.88;0.88;;;;;;;5.47;59.48;99420.47;4473065;32;20088;-90
2023/11/20 05:26:41;;;;;;;0.00;0.00;;;;;;;5.05;59.46;99421.97;4459791;32;20172;-91
2023/11/20 05:29:07;;;;;;;0.62;0.62;;;;;;;5.14;59.46;99431.31;4460304;32;20359;-92
2023/11/20 05:31:33;;;;;;;0.65;0.37;;;;;;;5.06;59.46;99428.84;4457906;32;20085;-92
2023/11/20 05:33:59;;;;;;;1.35;1.23;;;;;;;5.04;59.46;99429.75;4455656;32;20120;-92
2023/11/20 05:36:24;;;;;;;0.77;0.77;;;;;;;4.97;59.45;99429.00;4484070;32;20501;-91
2023/11/20 05:38:49;;;;;;;0.10;0.10;;;;;;;4.89;59.45;99435.97;4460479;32;20143;-94
2023/11/20 05:41:15;;;;;;;1.33;1.23;;;;;;;4.90;59.45;99430.78;4460697;32;20498;-94
2023/11/20 05:43:40;;;;;;;4.62;2.87;;;;;;;4.85;59.44;99434.31;4460453;32;20136;-96
2023/11/20 05:46:06;;;;;;;0.93;0.75;;;;;;;5.03;59.46;99428.91;4460108;32;20116;-94
2023/11/20 05:48:31;;;;;;;1.85;1.02;;;;;;;4.85;59.44;99436.87;4460738;32;20100;-94
2023/11/20 05:50:57;;;;;;;0.00;0.00;;;;;;;4.78;59.44;99438.72;4460729;32;20417;-92
2023/11/20 05:53:22;;;;;;;6.50;0.75;;;;;;;4.84;59.44;99437.75;4460909;32;20161;-93
2023/11/20 05:55:48;;;;;;;2.85;1.15;;;;;;;4.83;59.44;99436.91;4460228;32;20097;-95
2023/11/20 05:58:14;;;;;;;3.17;2.40;;;;;;;4.84;59.44;99440.34;4461107;32;20172;-94
2023/11/20 06:00:39;;;;;;;0.70;0.70;;;;;;;4.92;59.45;99430.75;4460999;32;20158;-95
2023/11/20 06:03:05;;;;;;;0.00;0.00;;;;;;;4.87;59.45;99424.81;4460320;32;20140;-96
2023/11/20 06:05:30;;;;;;;0.32;0.32;;;;;;;4.96;59.45;99428.97;4458582;32;20093;-94
2023/11/20 06:07:56;;;;;;;0.28;0.28;;;;;;;4.94;59.46;99424.69;4448976;32;20125;-94
2023/11/20 06:10:21;;;;;;;0.52;0.52;;;;;;;4.88;59.45;99431.69;4456561;32;20136;-94
2023/11/20 06:12:46;;;;;;;0.52;0.52;;;;;;;4.91;59.45;99431.63;4458005;32;20108;-95
2023/11/20 06:15:12;;;;;;;0.00;0.00;;;;;;;4.87;59.45;99435.13;4456911;32;20128;-96
2023/11/20 06:17:38;;;;;;;4.35;1.05;;;;;;;4.88;59.45;99435.13;4460674;32;20136;-95
2023/11/20 06:20:05;;;;;;;0.85;0.85;;;;;;;4.90;59.44;99437.66;4450349;32;20155;-95
2023/11/20 06:22:30;;;;;;;0.20;0.20;;;;;;;5.01;59.46;99435.81;4460866;32;20088;-93
2023/11/20 06:24:56;;;;;;;0.45;0.35;;;;;;;5.19;59.47;99444.97;4459275;32;20120;-93
2023/11/20 06:27:21;;;;;;;3.30;0.73;;;;;;;5.12;59.46;99451.13;4460064;32;20182;-95
2023/11/20 06:29:47;;;;;;;13.62;0.75;;;;;;;5.37;59.47;99449.84;4459231;32;23993;-94
2023/11/20 06:32:13;;;;;;;3.92;0.95;;;;;;;5.18;59.47;99456.19;4460591;32;20426;-95
2023/11/20 06:34:38;;;;;;;0.05;0.05;;;;;;;5.02;59.46;99460.72;4459470;32;20121;-95
2023/11/20 06:37:03;;;;;;;1.65;1.55;;;;;;;5.02;59.46;99465.03;4453685;32;20120;-94
2023/11/20 06:39:29;;;;;;;0.88;0.82;;;;;;;5.05;59.46;99475.31;4456274;32;20126;-96
2023/11/20 06:41:54;;;;;;;0.30;0.30;;;;;;;5.11;59.46;99482.94;4460211;32;20135;-94
2023/11/20 06:44:20;;;;;;;2.90;2.22;;;;;;;5.08;59.46;99483.00;4460114;32;20188;-93
2023/11/20 06:46:46;;;;;;;1.23;1.17;;;;;;;5.11;59.46;99476.06;4473106;32;20151;-95
2023/11/20 06:49:11;;;;;;;0.30;0.30;;;;;;;5.17;59.47;99475.97;4459490;32;20088;-93
2023/11/20 06:51:37;;;;;;;1.60;1.50;;;;;;;5.19;59.47;99474.22;4458764;32;20103;-93
2023/11/20 06:54:03;;;;;;;0.75;0.22;;;;;;;5.35;59.47;99482.59;4470919;32;20109;-92
2023/11/20 06:56:28;;;;;;;0.20;0.20;;;;;;;5.37;59.47;99477.41;4458396;32;20120;-93
2023/11/20 06:58:56;;;;;;;2.55;2.25;;;;;;;5.48;59.48;99480.69;4457530;32;20100;-91
2023/11/20 07:01:23;;;;;;;0.32;0.32;;;;;;;5.46;59.49;99480.72;4451886;32;20140;-94
2023/11/20 07:03:48;;;;;;;0.00;0.00;;;;;;;5.50;59.48;99477.19;4457782;32;20097;-92
2023/11/20 07:06:14;;;;;;;0.73;0.65;;;;;;;5.70;59.50;99470.88;4458682;32;20528;-94
2023/11/20 07:08:40;;;;;;;0.50;0.50;;;;;;;5.78;59.50;99475.00;4457621;32;20088;-91
2023/11/20 07:11:05;;;;;;;0.37;0.37;;;;;;;5.94;59.51;99470.47;4458706;32;20718;-90
2023/11/20 07:13:31;;;;;;;1.12;1.12;;;;;;;6.07;59.52;99468.50;4458440;32;20108;-91
2023/11/20 07:15:57;;;;;;;1.45;1.35;;;;;;;6.20;59.52;99466.56;4458257;32;20188;-91
2023/11/20 07:18:23;;;;;;;0.52;0.52;;;;;;;6.28;59.53;99465.53;4458320;32;20176;-91
2023/11/20 07:20:48;;;;;;;0.30;0.30;;;;;;;6.45;59.53;99463.47;4457939;32;20108;-91
2023/11/20 07:23:14;;;;;;;0.93;0.93;;;;;;;6.65;59.54;99463.06;4456446;32;20164;-92
2023/11/20 07:25:39;;;;;;;1.12;0.77;;;;;;;6.89;59.56;99463.44;4451536;32;20173;-92
2023/11/20 07:28:05;;;;;;;1.48;1.23;;;;;;;6.92;59.56;99463.38;4453662;32;20138;-91
2023/11/20 07:30:31;;;;;;;1.27;1.05;;;;;;;7.05;59.57;99470.81;4470773;32;20173;-92
2023/11/20 07:32:56;;;;;;;0.45;0.45;;;;;;;7.32;59.58;99474.50;4458112;32;20112;-91
2023/11/20 07:35:21;;;;;;;2.28;1.85;;;;;;;7.50;59.60;99454.25;4457810;32;20116;-91
2023/11/20 07:37:48;;;;;;;0.55;0.55;;;;;;;7.60;59.60;99454.00;4459648;32;20167;-92
2023/11/20 07:40:15;;;;;;;0.28;0.28;;;;;;;7.46;59.59;99450.88;4459889;32;20156;-91
2023/11/20 07:42:41;;;;;;;2.05;1.08;;;;;;;7.51;59.60;99445.59;4459996;32;20724;-92
2023/11/20 07:45:08;;;;;;;2.35;1.75;;;;;;;7.55;59.60;99448.06;4460093;32;20139;-92
2023/11/20 07:47:33;;;;;;;0.10;0.10;;;;;;;7.55;59.60;99448.06;4460008;32;20444;-93
2023/11/20 07:49:59;;;;;;;0.13;0.13;;;;;;;7.48;59.58;99448.25;4459695;32;20177;-92
2023/11/20 07:52:24;;;;;;;0.88;0.88;;;;;;;7.70;59.61;99446.84;4460029;32;20112;-92
2023/11/20 07:54:51;;;;;;;1.55;1.02;;;;;;;7.93;59.62;99452.28;4459962;32;20100;-91
2023/11/20 07:57:18;;;;;;;0.70;0.70;;;;;;;7.93;59.62;99451.44;4473065;32;20162;-92
2023/11/20 07:59:44;;;;;;;1.75;1.35;;;;;;;8.14;59.63;99447.44;4460175;32;20080;-92
2023/11/20 08:02:09;;;;;;;0.32;0.32;;;;;;;8.37;59.65;99429.53;4458411;32;20147;-93
2023/11/20 08:04:35;;;;;;;0.80;0.80;;;;;;;8.37;59.64;99436.47;4470003;32;20381;-92
2023/11/20 08:07:00;;;;;;;0.73;0.37;;;;;;;8.59;59.66;99432.38;4455786;32;20088;-91
2023/11/20 08:09:26;;;;;;;2.22;0.62;;;;;;;8.61;59.65;99434.03;4459578;32;20163;-92
2023/11/20 08:11:54;;;;;;;0.60;0.60;;;;;;;8.69;59.66;99433.78;4459932;32;20101;-91
2023/11/20 08:14:20;;;;;;;0.93;0.65;;;;;;;8.78;59.67;99430.94;4460075;32;20116;-92
2023/11/20 08:16:47;;;;;;;1.35;1.23;;;;;;;8.99;59.68;99436.34;4460251;32;20088;-92
2023/11/20 08:19:14;;;;;;;0.35;0.35;;;;;;;9.29;59.70;99435.41;4460178;31;20130;-92
2023/11/20 08:21:40;;;;;;;2.53;2.05;;;;;;;9.51;59.71;99428.63;4460007;32;20181;-93
2023/11/20 08:24:07;;;;;;;0.52;0.52;;;;;;;9.68;59.72;99435.84;4460093;32;20112;-93
2023/11/20 08:26:33;;;;;;;0.93;0.93;;;;;;;9.68;59.72;99438.44;4460115;32;20093;-93
2023/11/20 08:29:01;;;;;;;0.32;0.32;;;;;;;9.79;59.71;99435.50;4452753;32;20123;-93
2023/11/20 08:31:29;;;;;;;0.55;0.47;;;;;;;9.90;59.73;99428.19;4482347;32;20120;-93
2023/11/20 08:33:55;;;;;;;2.03;1.92;;;;;;;9.88;59.73;99442.13;4459863;32;20113;-92
2023/11/20 08:36:20;;;;;;;7.60;2.65;;;;;;;10.00;59.73;99439.13;4459057;32;20119;-93
2023/11/20 08:38:50;;;;;;;2.17;2.03;;;;;;;10.01;59.73;99435.63;4459736;32;20139;-93
2023/11/20 08:41:18;;;;;;;5.28;4.15;;;;;;;10.14;59.74;99424.72;4460158;32;20105;-93
2023/11/20 08:44:03;;;;;;;4.53;2.60;;;;;;;10.35;59.75;99417.09;4473099;32;20060;-93
2023/11/20 08:46:28;;;;;;;1.17;0.77;;;;;;;10.47;59.75;99423.63;4459959;32;20279;-93
2023/11/20 08:48:57;;;;;;;1.73;1.52;;;;;;;10.69;59.77;99427.13;4459111;32;20127;-94
2023/11/20 08:51:27;;;;;;;3.25;2.05;;;;;;;10.76;59.77;99416.41;4459885;32;20490;-93
2023/11/20 08:53:53;;;;;;;2.42;2.25;;;;;;;11.05;59.79;99422.25;4459939;32;20131;-93
2023/11/20 08:56:27;;;;;;;2.65;2.37;;;;;;;11.06;59.78;99419.56;4459328;32;20388;-93
2023/11/20 08:59:15;;;;;;;2.60;2.17;;;;;;;11.30;59.80;99414.31;4485523;32;20057;-93
2023/11/20 09:01:50;;;;;;;0.47;0.47;;;;;;;11.37;59.81;99411.41;4472027;32;20101;-93
2023/11/20 09:04:32;;;;;;;0.00;0.00;;;;;;;11.48;59.81;99407.50;4460625;32;20172;-92
2023/11/20 09:07:08;;;;;;;;;;;;;;;;;;;;;
2023/11/20 09:10:12;;;;;;;2.67;1.90;;;;;;;11.87;59.83;99410.25;4465767;32;36200;-93
2023/11/20 09:13:07;;;;;;;2.17;1.35;;;;;;;11.77;59.83;99414.97;4464064;32;20123;-94
2023/11/20 09:15:47;;;;;;;0.52;0.52;;;;;;;11.78;59.83;99408.84;4472707;32;20751;-93
2023/11/20 09:18:36;;;;;;;1.48;1.37;;;;;;;11.95;59.84;99403.78;4460125;32;20116;-93
2023/11/20 09:21:14;;;;;;;;;;;;;;;;;;;;;
2023/11/20 09:23:41;;;;;;;3.12;1.77;;;;;;;12.55;59.87;99404.59;4468808;32;36325;-93
2023/11/20 09:26:32;;;;;;;2.05;1.55;;;;;;;12.52;59.87;99396.88;4453005;32;20131;-92
2023/11/20 09:29:09;;;;;;;1.80;1.23;;;;;;;12.58;59.88;99401.00;4471877;32;20467;-93
2023/11/20 09:31:42;;;;;;;2.12;1.48;;;;;;;12.65;59.87;99393.72;4458852;32;20160;-93
2023/11/20 09:34:20;;;;;;;0.00;0.00;;;;;;;12.44;59.86;99393.78;4457752;32;20150;-92
2023/11/20 09:37:14;;;;;;;4.12;0.98;;;;;;;12.40;59.86;99401.84;4461064;32;20194;-93
2023/11/20 09:39:52;;;;;;;1.65;0.30;;;;;;;12.51;59.87;99395.19;4485413;31;20134;-93
2023/11/20 09:42:46;;;;;;;;;;;;;;;;;;;;;
2023/11/20 09:45:37;;;;;;;;;;;;;;;;;;;;;
2023/11/20 09:51:46;;;;;;;1.45;1.35;;;;;;;12.89;59.88;99379.53;4465625;32;20088;-93
2023/11/20 09:54:34;;;;;;;1.75;1.20;;;;;;;13.07;59.90;99380.44;4464248;32;20143;-93
2023/11/20 09:57:26;;;;;;;;;;;;;;;;;;;;;
2023/11/20 10:00:17;;;;;;;1.10;0.52;;;;;;;13.13;59.90;99375.75;4475185;32;35263;-93
2023/11/20 10:03:34;;;;;;;0.55;0.55;;;;;;;13.50;59.92;99366.97;4461528;32;20210;-93
2023/11/20 10:13:01;;;;;;;;;;;;;;;;;;;;;
2023/11/20 10:16:17;;;;;;;;;;;;;;;;;;;;;
2023/11/20 10:19:42;;;;;;;2.08;1.60;;;;;;;13.70;59.93;99358.09;4481939;32;37338;-93
2023/11/20 10:22:50;;;;;;;;;;;;;;;;;;;;;
2023/11/20 10:25:40;;;;;;;;;;;;;;;;;;;;;
2023/11/20 10:35:45;;;;;;;;;;;;;;;;;;;;;
2023/11/20 10:38:30;;;;;;;;;;;;;;;;;;;;;
2023/11/20 10:41:40;;;;;;;;;;;;;;;;;;;;;
2023/11/20 10:44:11;;;;;;;0.00;0.00;;;;;;;13.83;59.94;99337.41;4484151;32;36328;-92
2023/11/20 10:50:16;;;;;;;;;;;;;;;;;;;;;
2023/11/20 11:00:07;;;;;;;;;;;;;;;;;;;;;
2023/11/20 11:30:31;;;;;;;;;;;;;;;;;;;;;
2023/11/20 11:40:19;;;;;;;;;;;;;;;;;;;;;
2023/11/20 11:44:23;;;;;;;;;;;;;;;;;;;;;
2023/11/20 12:00:53;;;;;;;;;;;;;;;;;;;;;
2023/11/20 12:04:15;;;;;;;;;;;;;;;;;;;;;
2023/11/20 12:11:57;;;;;;;;;;;;;;;;;;;;;
2023/11/20 12:18:29;;;;;;;;;;;;;;;;;;;;;
2023/11/20 12:21:47;;;;;;;;;;;;;;;;;;;;;
2023/11/20 12:24:51;;;;;;;;;;;;;;;;;;;;;
2023/11/20 12:28:10;;;;;;;;;;;;;;;;;;;;;
2023/11/20 12:35:32;;;;;;;0.20;0.20;;;;;;;16.19;60.07;99237.34;4471568;31;20566;-93
2023/11/20 12:38:21;;;;;;;;;;;;;;;;;;;;;
2023/11/20 12:41:36;;;;;;;;;;;;;;;;;;;;;
2023/11/20 12:44:20;;;;;;;;;;;;;;;;;;;;;
2023/11/20 12:47:14;;;;;;;0.60;0.55;;;;;;;16.31;60.07;99226.97;4461860;32;35672;-93
2023/11/20 12:56:40;;;;;;;;;;;;;;;;;;;;;
2023/11/20 12:59:41;;;;;;;;;;;;;;;;;;;;;
2023/11/20 13:02:49;;;;;;;0.98;0.88;;;;;;;16.14;60.06;99228.91;4473006;32;35583;-92
2023/11/20 13:09:31;;;;;;;;;;;;;;;;;;;;;
2023/11/20 13:18:31;;;;;;;0.55;0.55;;;;;;;16.04;60.06;99230.41;4460890;32;20866;-92
2023/11/20 13:21:37;;;;;;;0.75;0.68;;;;;;;15.86;60.06;99231.56;4456883;32;20115;-92
2023/11/20 13:27:08;;;;;;;;;;;;;;;;;;;;;
2023/11/20 13:30:39;;;;;;;;;;;;;;;;;;;;;
2023/11/20 13:33:17;;;;;;;;;;;;;;;;;;;;;
2023/11/20 13:35:53;;;;;;;0.08;0.08;;;;;;;15.51;60.03;99228.44;4460585;32;35390;-92
2023/11/20 13:38:34;;;;;;;;;;;;;;;;;;;;;
2023/11/20 13:41:08;;;;;;;0.47;0.30;;;;;;;15.54;60.03;99225.63;4454839;32;36419;-92
2023/11/20 13:46:42;;;;;;;0.00;0.00;;;;;;;15.32;60.03;99228.69;4458728;32;20144;-91
2023/11/20 13:49:29;;;;;;;;;;;;;;;;;;;;;
2023/11/20 13:52:34;;;;;;;;;;;;;;;;;;;;;
2023/11/20 13:55:22;;;;;;;;;;;;;;;;;;;;;
2023/11/20 13:58:21;;;;;;;;;;;;;;;;;;;;;
2023/11/20 14:07:58;;;;;;;0.00;0.00;;;;;;;15.40;60.03;99223.00;4439137;32;20088;-93
2023/11/20 14:11:01;;;;;;;;;;;;;;;;;;;;;
2023/11/20 14:14:02;;;;;;;;;;;;;;;;;;;;;
2023/11/20 14:19:42;;;;;;;;;;;;;;;;;;;;;
2023/11/20 14:22:24;;;;;;;0.00;0.00;;;;;;;15.16;60.02;99223.53;4480655;32;35672;-93
2023/11/20 14:25:28;;;;;;;;;;;;;;;;;;;;;
2023/11/20 14:28:09;;;;;;;;;;;;;;;;;;;;;
2023/11/20 14:30:56;;;;;;;;;;;;;;;;;;;;;
2023/11/20 14:33:52;;;;;;;0.00;0.00;;;;;;;15.45;60.02;99224.41;4459718;32;36494;-93
2023/11/20 14:39:39;;;;;;;;;;;;;;;;;;;;;
2023/11/20 14:42:43;;;;;;;0.10;0.10;;;;;;;15.01;60.00;99233.13;4472862;32;35618;-93
2023/11/20 14:45:27;;;;;;;0.10;0.10;;;;;;;15.07;60.01;99236.31;4461718;32;20154;-93
2023/11/20 14:48:15;;;;;;;0.00;0.00;;;;;;;15.12;60.01;99245.59;4447719;32;20431;-93
2023/11/20 14:51:01;;;;;;;;;;;;;;;;;;;;;
2023/11/20 14:54:01;;;;;;;;;;;;;;;;;;;;;
2023/11/20 14:56:39;;;;;;;;;;;;;;;;;;;;;
2023/11/20 14:59:10;;;;;;;0.35;0.35;;;;;;;14.57;59.98;99238.28;4458764;32;35149;-93
2023/11/20 15:01:35;;;;;;;0.10;0.10;;;;;;;14.59;59.98;99243.44;4446924;32;20164;-93
2023/11/20 15:04:13;;;;;;;;;;;;;;;;;;;;;
2023/11/20 15:07:18;;;;;;;;;;;;;;;;;;;;;
2023/11/20 15:09:54;;;;;;;0.00;0.00;;;;;;;14.50;59.98;99239.56;4463714;32;36163;-92
2023/11/20 15:12:40;;;;;;;0.00;0.00;;;;;;;14.27;59.97;99238.22;4444784;32;20115;-94
2023/11/20 15:15:24;;;;;;;0.00;0.00;;;;;;;14.42;59.97;99245.19;4433031;32;20085;-94
2023/11/20 15:18:27;;;;;;;0.13;0.13;;;;;;;14.49;59.98;99230.03;4440869;32;20130;-93